Detall de PIREP

Printer-friendly versionPDF version

[2014/04/06 07:46:00]
Flight IATA:CT2206
Pilot Number:044
Company ICAO:CAT
Aircraft Type:F100/A
PAX:100
Aircraft Registration:PFJ
Departing Airport: LFMP
Destination Airport: LFSB
Alternate Airport:LFST
Online: VATSIM
Route:FJR UL127 PADKO/N300F300 UN854 ETREK UM976 ATN UM129 RESPO UM187 POGOL/N300F270 UZ24 ARPUS
Flight Level:F290
No Slew and time accel
No pause
Crash detect
Detect pilot in Cockpit between each 30 and 45 minutes
07:46 Zero fuel Weight: 81526 Lbs, Fuel Weight: 11280 Lbs
07:46 VATSIM:LFMP 060730Z 01005KT 330V040 9999 FEW030 18/11 Q1019 NOSIG
07:46 VATSIM:LFSB 060730Z VRB01KT 4000 BR FEW040 BKN046 11/11 Q1021 NOSIG
07:47 VOICE CATALONIAN
07:48 Parking Brakes off
07:57 Take-off
07:57 Take off Weight: 92269 Lbs
07:57 Wind: 349º @ 005 Knots Heading: 328º
07:57 POS N42º 45´ 00´´ E002º 51´ 54´´
07:57 Flaps:1 at 183 Knots
07:57 Gear Up: 186 Knots
07:57 Flaps:0 at 203 Knots
08:12 Wind:349º@032 Knots Heading: 071º Ground Speed: 363 Knots Altitude 27450 ft
08:12 TOC
08:12 Fuel Weight: 8931 Lb
08:23 TOD
08:23 Fuel Weight: 8137 Lb
08:27 Wind:358º@078 Knots Heading: 003º Ground Speed: 332 Knots Altitude 28129 ft
08:42 Wind:341º@008 Knots Heading: 350º Ground Speed: 402 Knots Altitude 28228 ft
08:57 Wind:161º@001 Knots Heading: 037º Ground Speed: 413 Knots Altitude 28231 ft
09:12 Wind:139º@000 Knots Heading: 271º Ground Speed: 307 Knots Altitude 13369 ft
09:27 Wind:088º@002 Knots Heading: 055º Ground Speed: 188 Knots Altitude 3989 ft
09:28 Flaps:1 at 180 Knots
09:29 Flaps:2 at 168 Knots
09:33 Flaps:3 at 160 Knots
09:33 Gear Down: 156 Knots
09:34 Flaps:4 at 138 Knots
09:35 TouchDown:Rate -337 ft/min Speed: 121 Knots
09:35 VATSIM:LFSB 060900Z VRB01KT 9999 FEW020 SCT060 14/10 Q1021 NOSIG
09:35 Land
09:35 Wind:051º@002 Knots
09:35 Heading: 152º
09:35 Flight Duration: 01:38
09:35 Landing Weight: 85152 Lbs
09:35 POS N47º 36´ 30´´ E007º 30´ 59´´
09:41 Parking brakes on
09:41 Block to Block Duration: 01:53
09:41 Final Fuel: 3428 Lbls
09:41 Spent Fuel: 7852 Lbls
09:41 Flight Length: 538 NM
09:41 TOD Land Length: 396 NM

Exportar CSV

Powered by Drupal - Modified by Danger4k